sensor_id;sensor_type;location;lat;lon;timestamp;P1;durP1;ratioP1;P2;durP2;ratioP2
72198;SDS011;72266;51.056;16.880;2024-03-25T00:00:56;9.50;;;4.20;;
72198;SDS011;72266;51.056;16.880;2024-03-25T00:03:39;9.60;;;3.60;;
72198;SDS011;72266;51.056;16.880;2024-03-25T00:06:12;9.50;;;4.00;;
72198;SDS011;72266;51.056;16.880;2024-03-25T00:08:44;9.30;;;3.90;;
72198;SDS011;72266;51.056;16.880;2024-03-25T00:11:16;11.50;;;4.40;;
72198;SDS011;72266;51.056;16.880;2024-03-25T00:13:49;9.40;;;4.20;;
72198;SDS011;72266;51.056;16.880;2024-03-25T00:16:26;9.90;;;4.30;;
72198;SDS011;72266;51.056;16.880;2024-03-25T00:18:58;9.40;;;4.00;;
72198;SDS011;72266;51.056;16.880;2024-03-25T00:21:31;9.80;;;4.10;;
72198;SDS011;72266;51.056;16.880;2024-03-25T00:24:05;8.80;;;4.00;;
72198;SDS011;72266;51.056;16.880;2024-03-25T00:26:37;8.70;;;4.30;;
72198;SDS011;72266;51.056;16.880;2024-03-25T00:29:10;7.80;;;3.30;;
72198;SDS011;72266;51.056;16.880;2024-03-25T00:31:43;9.60;;;4.10;;
72198;SDS011;72266;51.056;16.880;2024-03-25T00:34:16;8.60;;;3.90;;
72198;SDS011;72266;51.056;16.880;2024-03-25T00:36:49;9.20;;;3.90;;
72198;SDS011;72266;51.056;16.880;2024-03-25T00:39:22;7.90;;;3.20;;
72198;SDS011;72266;51.056;16.880;2024-03-25T00:41:55;8.80;;;3.40;;
72198;SDS011;72266;51.056;16.880;2024-03-25T00:44:27;8.90;;;3.40;;
72198;SDS011;72266;51.056;16.880;2024-03-25T00:46:59;7.70;;;2.90;;
72198;SDS011;72266;51.056;16.880;2024-03-25T00:49:31;8.30;;;2.60;;
72198;SDS011;72266;51.056;16.880;2024-03-25T00:52:04;7.60;;;2.50;;
72198;SDS011;72266;51.056;16.880;2024-03-25T00:54:37;7.20;;;2.40;;
72198;SDS011;72266;51.056;16.880;2024-03-25T00:57:09;6.10;;;1.80;;
72198;SDS011;72266;51.056;16.880;2024-03-25T00:59:43;6.10;;;1.80;;
72198;SDS011;72266;51.056;16.880;2024-03-25T01:02:16;5.50;;;1.80;;
72198;SDS011;72266;51.056;16.880;2024-03-25T01:04:48;5.20;;;2.00;;
72198;SDS011;72266;51.056;16.880;2024-03-25T01:07:21;6.80;;;2.10;;
72198;SDS011;72266;51.056;16.880;2024-03-25T01:09:53;7.20;;;2.20;;
72198;SDS011;72266;51.056;16.880;2024-03-25T01:12:26;6.70;;;2.30;;
72198;SDS011;72266;51.056;16.880;2024-03-25T01:14:59;7.00;;;2.50;;
72198;SDS011;72266;51.056;16.880;2024-03-25T01:17:32;6.50;;;2.40;;
72198;SDS011;72266;51.056;16.880;2024-03-25T01:20:05;8.10;;;2.30;;
72198;SDS011;72266;51.056;16.880;2024-03-25T01:22:39;8.00;;;2.80;;
72198;SDS011;72266;51.056;16.880;2024-03-25T01:25:13;9.10;;;2.70;;
72198;SDS011;72266;51.056;16.880;2024-03-25T01:27:45;7.90;;;3.10;;
72198;SDS011;72266;51.056;16.880;2024-03-25T01:30:17;7.80;;;2.60;;
72198;SDS011;72266;51.056;16.880;2024-03-25T01:32:50;7.50;;;2.60;;
72198;SDS011;72266;51.056;16.880;2024-03-25T01:35:23;7.80;;;2.90;;
72198;SDS011;72266;51.056;16.880;2024-03-25T01:37:55;8.30;;;3.00;;
72198;SDS011;72266;51.056;16.880;2024-03-25T01:40:27;8.60;;;3.10;;
72198;SDS011;72266;51.056;16.880;2024-03-25T01:43:00;8.40;;;3.20;;
72198;SDS011;72266;51.056;16.880;2024-03-25T01:45:34;7.30;;;2.80;;
72198;SDS011;72266;51.056;16.880;2024-03-25T01:48:07;8.40;;;2.90;;
72198;SDS011;72266;51.056;16.880;2024-03-25T01:50:42;7.10;;;2.50;;
72198;SDS011;72266;51.056;16.880;2024-03-25T01:53:16;7.50;;;2.30;;
72198;SDS011;72266;51.056;16.880;2024-03-25T01:55:48;8.30;;;3.00;;
72198;SDS011;72266;51.056;16.880;2024-03-25T01:58:23;8.40;;;3.50;;
72198;SDS011;72266;51.056;16.880;2024-03-25T02:00:56;8.80;;;3.60;;
72198;SDS011;72266;51.056;16.880;2024-03-25T02:03:29;8.90;;;3.70;;
72198;SDS011;72266;51.056;16.880;2024-03-25T02:06:02;8.50;;;3.50;;
72198;SDS011;72266;51.056;16.880;2024-03-25T02:08:38;9.80;;;3.60;;
72198;SDS011;72266;51.056;16.880;2024-03-25T02:11:10;8.20;;;3.40;;
72198;SDS011;72266;51.056;16.880;2024-03-25T02:13:43;8.30;;;3.30;;
72198;SDS011;72266;51.056;16.880;2024-03-25T02:16:15;7.30;;;2.80;;
72198;SDS011;72266;51.056;16.880;2024-03-25T02:18:48;7.50;;;2.90;;
72198;SDS011;72266;51.056;16.880;2024-03-25T02:21:21;8.00;;;3.50;;
72198;SDS011;72266;51.056;16.880;2024-03-25T02:23:55;7.40;;;2.90;;
72198;SDS011;72266;51.056;16.880;2024-03-25T02:26:32;8.80;;;2.70;;
72198;SDS011;72266;51.056;16.880;2024-03-25T02:29:04;8.10;;;2.50;;
72198;SDS011;72266;51.056;16.880;2024-03-25T02:31:37;7.60;;;2.90;;
72198;SDS011;72266;51.056;16.880;2024-03-25T02:34:09;8.00;;;2.80;;
72198;SDS011;72266;51.056;16.880;2024-03-25T02:36:42;7.80;;;2.90;;
72198;SDS011;72266;51.056;16.880;2024-03-25T02:39:14;7.60;;;2.70;;
72198;SDS011;72266;51.056;16.880;2024-03-25T02:41:47;7.50;;;2.80;;
72198;SDS011;72266;51.056;16.880;2024-03-25T02:44:20;6.80;;;2.70;;
72198;SDS011;72266;51.056;16.880;2024-03-25T02:46:53;7.40;;;2.90;;
72198;SDS011;72266;51.056;16.880;2024-03-25T02:49:25;7.70;;;2.70;;
72198;SDS011;72266;51.056;16.880;2024-03-25T02:51:57;6.70;;;2.50;;
72198;SDS011;72266;51.056;16.880;2024-03-25T02:54:29;8.00;;;2.90;;
72198;SDS011;72266;51.056;16.880;2024-03-25T02:57:02;7.50;;;2.70;;
72198;SDS011;72266;51.056;16.880;2024-03-25T02:59:35;7.40;;;2.90;;
72198;SDS011;72266;51.056;16.880;2024-03-25T03:02:07;7.50;;;2.60;;
72198;SDS011;72266;51.056;16.880;2024-03-25T03:04:40;8.40;;;2.90;;
72198;SDS011;72266;51.056;16.880;2024-03-25T03:07:12;7.20;;;2.60;;
72198;SDS011;72266;51.056;16.880;2024-03-25T03:09:44;7.90;;;2.80;;
72198;SDS011;72266;51.056;16.880;2024-03-25T03:12:17;6.90;;;2.30;;
72198;SDS011;72266;51.056;16.880;2024-03-25T03:14:49;6.80;;;2.10;;
72198;SDS011;72266;51.056;16.880;2024-03-25T03:17:21;5.70;;;2.00;;
72198;SDS011;72266;51.056;16.880;2024-03-25T03:19:53;6.90;;;2.10;;
72198;SDS011;72266;51.056;16.880;2024-03-25T03:22:26;6.40;;;2.10;;
72198;SDS011;72266;51.056;16.880;2024-03-25T03:24:58;7.10;;;2.40;;
72198;SDS011;72266;51.056;16.880;2024-03-25T03:27:31;6.50;;;2.20;;
72198;SDS011;72266;51.056;16.880;2024-03-25T03:30:03;7.20;;;2.40;;
72198;SDS011;72266;51.056;16.880;2024-03-25T03:32:38;5.60;;;1.70;;
72198;SDS011;72266;51.056;16.880;2024-03-25T03:35:11;5.30;;;1.60;;
72198;SDS011;72266;51.056;16.880;2024-03-25T03:37:44;5.20;;;1.40;;
72198;SDS011;72266;51.056;16.880;2024-03-25T03:40:16;5.40;;;1.70;;
72198;SDS011;72266;51.056;16.880;2024-03-25T03:42:48;4.10;;;1.10;;
72198;SDS011;72266;51.056;16.880;2024-03-25T03:45:21;5.20;;;1.60;;
72198;SDS011;72266;51.056;16.880;2024-03-25T03:47:54;5.40;;;1.60;;
72198;SDS011;72266;51.056;16.880;2024-03-25T03:50:27;5.00;;;1.40;;
72198;SDS011;72266;51.056;16.880;2024-03-25T03:52:59;5.60;;;1.50;;
72198;SDS011;72266;51.056;16.880;2024-03-25T03:55:34;6.30;;;1.70;;
72198;SDS011;72266;51.056;16.880;2024-03-25T03:58:06;5.80;;;1.80;;
72198;SDS011;72266;51.056;16.880;2024-03-25T04:00:38;5.30;;;1.70;;
72198;SDS011;72266;51.056;16.880;2024-03-25T04:03:11;5.50;;;1.80;;
72198;SDS011;72266;51.056;16.880;2024-03-25T04:05:45;5.60;;;1.80;;
72198;SDS011;72266;51.056;16.880;2024-03-25T04:08:18;5.70;;;1.70;;
72198;SDS011;72266;51.056;16.880;2024-03-25T04:10:51;4.80;;;1.40;;
72198;SDS011;72266;51.056;16.880;2024-03-25T04:13:23;5.50;;;1.70;;
72198;SDS011;72266;51.056;16.880;2024-03-25T04:15:59;5.10;;;1.60;;
72198;SDS011;72266;51.056;16.880;2024-03-25T04:18:33;6.40;;;2.10;;
72198;SDS011;72266;51.056;16.880;2024-03-25T04:21:11;6.20;;;2.00;;
72198;SDS011;72266;51.056;16.880;2024-03-25T04:23:43;5.90;;;2.00;;
72198;SDS011;72266;51.056;16.880;2024-03-25T04:26:16;5.90;;;1.90;;
72198;SDS011;72266;51.056;16.880;2024-03-25T04:28:48;6.80;;;2.10;;
72198;SDS011;72266;51.056;16.880;2024-03-25T04:31:22;6.70;;;2.20;;
72198;SDS011;72266;51.056;16.880;2024-03-25T04:33:54;6.90;;;2.60;;
72198;SDS011;72266;51.056;16.880;2024-03-25T04:36:27;7.30;;;2.60;;
72198;SDS011;72266;51.056;16.880;2024-03-25T04:39:00;6.70;;;2.30;;
72198;SDS011;72266;51.056;16.880;2024-03-25T04:41:38;7.30;;;2.70;;
72198;SDS011;72266;51.056;16.880;2024-03-25T04:44:11;7.10;;;2.10;;
72198;SDS011;72266;51.056;16.880;2024-03-25T04:46:43;7.20;;;2.40;;
72198;SDS011;72266;51.056;16.880;2024-03-25T04:49:16;6.90;;;2.30;;
72198;SDS011;72266;51.056;16.880;2024-03-25T04:51:49;6.30;;;2.40;;
72198;SDS011;72266;51.056;16.880;2024-03-25T04:54:22;6.80;;;2.80;;
72198;SDS011;72266;51.056;16.880;2024-03-25T04:56:55;8.30;;;3.10;;
72198;SDS011;72266;51.056;16.880;2024-03-25T04:59:30;7.70;;;2.70;;
72198;SDS011;72266;51.056;16.880;2024-03-25T05:02:03;6.90;;;2.60;;
72198;SDS011;72266;51.056;16.880;2024-03-25T05:04:36;7.50;;;2.50;;
72198;SDS011;72266;51.056;16.880;2024-03-25T05:07:08;7.10;;;2.70;;
72198;SDS011;72266;51.056;16.880;2024-03-25T05:09:42;6.90;;;2.40;;
72198;SDS011;72266;51.056;16.880;2024-03-25T05:12:14;6.30;;;2.10;;
72198;SDS011;72266;51.056;16.880;2024-03-25T05:14:46;6.90;;;2.20;;
72198;SDS011;72266;51.056;16.880;2024-03-25T05:17:19;6.40;;;1.90;;
72198;SDS011;72266;51.056;16.880;2024-03-25T05:19:52;8.10;;;2.50;;
72198;SDS011;72266;51.056;16.880;2024-03-25T05:22:24;6.50;;;1.80;;
72198;SDS011;72266;51.056;16.880;2024-03-25T05:24:57;6.60;;;2.10;;
72198;SDS011;72266;51.056;16.880;2024-03-25T05:27:29;5.60;;;1.80;;
72198;SDS011;72266;51.056;16.880;2024-03-25T05:30:01;5.60;;;1.60;;
72198;SDS011;72266;51.056;16.880;2024-03-25T05:32:37;4.50;;;1.20;;
72198;SDS011;72266;51.056;16.880;2024-03-25T05:35:09;5.00;;;1.30;;
72198;SDS011;72266;51.056;16.880;2024-03-25T05:37:42;4.70;;;1.30;;
72198;SDS011;72266;51.056;16.880;2024-03-25T05:40:14;4.80;;;1.20;;
72198;SDS011;72266;51.056;16.880;2024-03-25T05:42:46;4.30;;;1.20;;
72198;SDS011;72266;51.056;16.880;2024-03-25T05:45:19;5.20;;;1.70;;
72198;SDS011;72266;51.056;16.880;2024-03-25T05:47:51;3.40;;;1.00;;
72198;SDS011;72266;51.056;16.880;2024-03-25T05:50:23;4.60;;;1.30;;
72198;SDS011;72266;51.056;16.880;2024-03-25T05:52:56;3.50;;;1.10;;
72198;SDS011;72266;51.056;16.880;2024-03-25T05:55:28;3.30;;;1.00;;
72198;SDS011;72266;51.056;16.880;2024-03-25T05:58:01;3.80;;;1.10;;
72198;SDS011;72266;51.056;16.880;2024-03-25T06:00:33;3.50;;;0.90;;
72198;SDS011;72266;51.056;16.880;2024-03-25T06:03:05;4.00;;;1.30;;
72198;SDS011;72266;51.056;16.880;2024-03-25T06:05:38;3.20;;;1.00;;
72198;SDS011;72266;51.056;16.880;2024-03-25T06:08:10;4.60;;;1.20;;
72198;SDS011;72266;51.056;16.880;2024-03-25T06:10:50;4.10;;;1.30;;
72198;SDS011;72266;51.056;16.880;2024-03-25T06:13:22;3.10;;;1.10;;
72198;SDS011;72266;51.056;16.880;2024-03-25T06:15:55;4.50;;;1.30;;
72198;SDS011;72266;51.056;16.880;2024-03-25T06:18:28;3.90;;;1.10;;
72198;SDS011;72266;51.056;16.880;2024-03-25T06:21:00;4.30;;;1.20;;
72198;SDS011;72266;51.056;16.880;2024-03-25T06:23:33;4.90;;;1.50;;
72198;SDS011;72266;51.056;16.880;2024-03-25T06:26:06;3.90;;;1.20;;
72198;SDS011;72266;51.056;16.880;2024-03-25T06:28:41;4.90;;;1.30;;
72198;SDS011;72266;51.056;16.880;2024-03-25T06:31:15;4.80;;;1.30;;
72198;SDS011;72266;51.056;16.880;2024-03-25T06:34:05;5.60;;;1.80;;
72198;SDS011;72266;51.056;16.880;2024-03-25T06:36:51;4.50;;;1.40;;
72198;SDS011;72266;51.056;16.880;2024-03-25T06:39:24;4.90;;;1.60;;
72198;SDS011;72266;51.056;16.880;2024-03-25T06:41:57;4.00;;;1.20;;
72198;SDS011;72266;51.056;16.880;2024-03-25T06:44:30;4.60;;;1.20;;
72198;SDS011;72266;51.056;16.880;2024-03-25T06:47:03;4.50;;;1.30;;
72198;SDS011;72266;51.056;16.880;2024-03-25T06:49:36;4.60;;;1.30;;
72198;SDS011;72266;51.056;16.880;2024-03-25T06:52:08;5.90;;;1.90;;
72198;SDS011;72266;51.056;16.880;2024-03-25T06:54:42;5.80;;;1.90;;
72198;SDS011;72266;51.056;16.880;2024-03-25T06:57:14;5.60;;;1.70;;
72198;SDS011;72266;51.056;16.880;2024-03-25T06:59:47;6.30;;;1.80;;
72198;SDS011;72266;51.056;16.880;2024-03-25T07:02:20;7.00;;;2.20;;
72198;SDS011;72266;51.056;16.880;2024-03-25T07:04:52;4.90;;;1.50;;
72198;SDS011;72266;51.056;16.880;2024-03-25T07:07:25;4.90;;;1.40;;
72198;SDS011;72266;51.056;16.880;2024-03-25T07:09:58;4.50;;;1.20;;
72198;SDS011;72266;51.056;16.880;2024-03-25T07:12:30;4.80;;;1.40;;
72198;SDS011;72266;51.056;16.880;2024-03-25T07:15:04;5.30;;;1.30;;
72198;SDS011;72266;51.056;16.880;2024-03-25T07:17:37;5.20;;;1.60;;
72198;SDS011;72266;51.056;16.880;2024-03-25T07:20:10;5.10;;;1.30;;
72198;SDS011;72266;51.056;16.880;2024-03-25T07:22:43;5.70;;;1.80;;
72198;SDS011;72266;51.056;16.880;2024-03-25T07:25:15;6.60;;;1.70;;
72198;SDS011;72266;51.056;16.880;2024-03-25T07:27:47;5.80;;;1.50;;
72198;SDS011;72266;51.056;16.880;2024-03-25T07:30:20;4.80;;;1.20;;
72198;SDS011;72266;51.056;16.880;2024-03-25T07:32:55;5.00;;;1.50;;
72198;SDS011;72266;51.056;16.880;2024-03-25T07:35:28;3.90;;;1.20;;
72198;SDS011;72266;51.056;16.880;2024-03-25T07:38:01;5.60;;;1.40;;
72198;SDS011;72266;51.056;16.880;2024-03-25T07:40:33;4.60;;;1.50;;
72198;SDS011;72266;51.056;16.880;2024-03-25T07:43:06;5.10;;;1.60;;
72198;SDS011;72266;51.056;16.880;2024-03-25T07:45:39;3.80;;;1.20;;
72198;SDS011;72266;51.056;16.880;2024-03-25T07:48:12;4.60;;;1.40;;
72198;SDS011;72266;51.056;16.880;2024-03-25T07:50:44;4.00;;;1.10;;
72198;SDS011;72266;51.056;16.880;2024-03-25T07:53:17;3.40;;;1.10;;
72198;SDS011;72266;51.056;16.880;2024-03-25T07:55:50;4.00;;;1.20;;
72198;SDS011;72266;51.056;16.880;2024-03-25T07:58:23;5.90;;;1.40;;
72198;SDS011;72266;51.056;16.880;2024-03-25T08:00:55;5.40;;;1.50;;
72198;SDS011;72266;51.056;16.880;2024-03-25T08:03:28;4.60;;;1.10;;
72198;SDS011;72266;51.056;16.880;2024-03-25T08:06:01;4.40;;;1.40;;
72198;SDS011;72266;51.056;16.880;2024-03-25T08:08:35;5.20;;;1.40;;
72198;SDS011;72266;51.056;16.880;2024-03-25T08:11:08;3.50;;;1.10;;
72198;SDS011;72266;51.056;16.880;2024-03-25T08:13:40;5.20;;;1.40;;
72198;SDS011;72266;51.056;16.880;2024-03-25T08:16:13;5.60;;;1.60;;
72198;SDS011;72266;51.056;16.880;2024-03-25T08:18:46;5.60;;;1.80;;
72198;SDS011;72266;51.056;16.880;2024-03-25T08:21:23;6.10;;;1.70;;
72198;SDS011;72266;51.056;16.880;2024-03-25T08:23:56;4.20;;;1.20;;
72198;SDS011;72266;51.056;16.880;2024-03-25T08:26:28;4.90;;;1.40;;
72198;SDS011;72266;51.056;16.880;2024-03-25T08:29:01;6.20;;;1.70;;
72198;SDS011;72266;51.056;16.880;2024-03-25T08:31:33;5.90;;;1.80;;
72198;SDS011;72266;51.056;16.880;2024-03-25T08:34:07;5.60;;;1.80;;
72198;SDS011;72266;51.056;16.880;2024-03-25T08:36:39;4.80;;;1.40;;
72198;SDS011;72266;51.056;16.880;2024-03-25T08:39:12;6.00;;;1.60;;
72198;SDS011;72266;51.056;16.880;2024-03-25T08:41:44;7.10;;;2.10;;
72198;SDS011;72266;51.056;16.880;2024-03-25T08:44:16;4.50;;;1.30;;
72198;SDS011;72266;51.056;16.880;2024-03-25T08:46:49;5.40;;;1.60;;
72198;SDS011;72266;51.056;16.880;2024-03-25T08:49:21;7.10;;;1.60;;
72198;SDS011;72266;51.056;16.880;2024-03-25T08:51:54;4.80;;;1.40;;
72198;SDS011;72266;51.056;16.880;2024-03-25T08:54:26;5.30;;;1.70;;
72198;SDS011;72266;51.056;16.880;2024-03-25T08:56:58;4.10;;;1.40;;
72198;SDS011;72266;51.056;16.880;2024-03-25T08:59:31;5.40;;;1.60;;
72198;SDS011;72266;51.056;16.880;2024-03-25T09:02:03;5.90;;;1.90;;
72198;SDS011;72266;51.056;16.880;2024-03-25T09:04:38;7.00;;;1.90;;
72198;SDS011;72266;51.056;16.880;2024-03-25T09:07:10;5.80;;;1.90;;
72198;SDS011;72266;51.056;16.880;2024-03-25T09:09:42;5.90;;;2.10;;
72198;SDS011;72266;51.056;16.880;2024-03-25T09:12:44;6.00;;;1.90;;
72198;SDS011;72266;51.056;16.880;2024-03-25T09:15:16;7.00;;;2.50;;
72198;SDS011;72266;51.056;16.880;2024-03-25T09:17:48;7.60;;;1.80;;
72198;SDS011;72266;51.056;16.880;2024-03-25T09:20:20;7.40;;;2.40;;
72198;SDS011;72266;51.056;16.880;2024-03-25T09:22:52;7.90;;;2.50;;
72198;SDS011;72266;51.056;16.880;2024-03-25T09:25:25;6.90;;;2.20;;
72198;SDS011;72266;51.056;16.880;2024-03-25T09:27:58;7.40;;;2.80;;
72198;SDS011;72266;51.056;16.880;2024-03-25T09:30:32;7.60;;;2.70;;
72198;SDS011;72266;51.056;16.880;2024-03-25T09:33:05;7.70;;;2.90;;
72198;SDS011;72266;51.056;16.880;2024-03-25T09:35:38;7.80;;;3.00;;
72198;SDS011;72266;51.056;16.880;2024-03-25T09:38:11;6.30;;;2.30;;
72198;SDS011;72266;51.056;16.880;2024-03-25T09:40:44;7.30;;;3.00;;
72198;SDS011;72266;51.056;16.880;2024-03-25T09:43:20;7.50;;;2.80;;
72198;SDS011;72266;51.056;16.880;2024-03-25T09:45:54;9.10;;;2.70;;
72198;SDS011;72266;51.056;16.880;2024-03-25T09:48:28;8.70;;;2.90;;
72198;SDS011;72266;51.056;16.880;2024-03-25T09:51:02;7.60;;;2.80;;
72198;SDS011;72266;51.056;16.880;2024-03-25T09:53:35;7.30;;;2.90;;
72198;SDS011;72266;51.056;16.880;2024-03-25T09:56:09;7.70;;;2.50;;
72198;SDS011;72266;51.056;16.880;2024-03-25T09:58:42;7.20;;;2.70;;
72198;SDS011;72266;51.056;16.880;2024-03-25T10:01:16;7.60;;;2.90;;
72198;SDS011;72266;51.056;16.880;2024-03-25T10:03:48;7.20;;;3.00;;
72198;SDS011;72266;51.056;16.880;2024-03-25T10:06:20;7.70;;;2.40;;
72198;SDS011;72266;51.056;16.880;2024-03-25T10:08:54;7.40;;;2.50;;
72198;SDS011;72266;51.056;16.880;2024-03-25T10:11:28;6.70;;;2.10;;
72198;SDS011;72266;51.056;16.880;2024-03-25T10:14:02;6.30;;;2.10;;
72198;SDS011;72266;51.056;16.880;2024-03-25T10:16:35;8.10;;;2.80;;
72198;SDS011;72266;51.056;16.880;2024-03-25T10:19:07;6.90;;;2.10;;
72198;SDS011;72266;51.056;16.880;2024-03-25T10:21:39;7.20;;;2.30;;
72198;SDS011;72266;51.056;16.880;2024-03-25T10:24:12;7.10;;;2.60;;
72198;SDS011;72266;51.056;16.880;2024-03-25T10:26:48;6.70;;;2.20;;
72198;SDS011;72266;51.056;16.880;2024-03-25T10:29:24;7.40;;;2.10;;
72198;SDS011;72266;51.056;16.880;2024-03-25T10:32:00;6.00;;;2.00;;
72198;SDS011;72266;51.056;16.880;2024-03-25T10:34:33;6.70;;;2.30;;
72198;SDS011;72266;51.056;16.880;2024-03-25T10:37:07;5.50;;;1.60;;
72198;SDS011;72266;51.056;16.880;2024-03-25T10:39:43;6.10;;;1.90;;
72198;SDS011;72266;51.056;16.880;2024-03-25T10:42:19;5.80;;;1.80;;
72198;SDS011;72266;51.056;16.880;2024-03-25T10:44:52;7.40;;;2.00;;
72198;SDS011;72266;51.056;16.880;2024-03-25T10:47:27;7.90;;;2.50;;
72198;SDS011;72266;51.056;16.880;2024-03-25T10:50:01;6.30;;;1.90;;
72198;SDS011;72266;51.056;16.880;2024-03-25T10:52:38;6.40;;;2.20;;
72198;SDS011;72266;51.056;16.880;2024-03-25T10:55:11;6.20;;;1.70;;
72198;SDS011;72266;51.056;16.880;2024-03-25T10:57:44;7.30;;;2.50;;
72198;SDS011;72266;51.056;16.880;2024-03-25T11:00:17;6.20;;;2.00;;
72198;SDS011;72266;51.056;16.880;2024-03-25T11:02:51;6.30;;;2.20;;
72198;SDS011;72266;51.056;16.880;2024-03-25T11:05:24;7.00;;;2.70;;
72198;SDS011;72266;51.056;16.880;2024-03-25T11:07:59;7.00;;;2.50;;
72198;SDS011;72266;51.056;16.880;2024-03-25T11:10:43;5.70;;;1.90;;
72198;SDS011;72266;51.056;16.880;2024-03-25T11:13:17;7.30;;;2.30;;
72198;SDS011;72266;51.056;16.880;2024-03-25T11:15:49;7.00;;;2.40;;
72198;SDS011;72266;51.056;16.880;2024-03-25T11:18:23;6.60;;;2.30;;
72198;SDS011;72266;51.056;16.880;2024-03-25T11:21:03;7.20;;;2.10;;
72198;SDS011;72266;51.056;16.880;2024-03-25T11:23:40;7.00;;;2.50;;
72198;SDS011;72266;51.056;16.880;2024-03-25T11:26:18;7.10;;;2.40;;
72198;SDS011;72266;51.056;16.880;2024-03-25T11:28:52;6.90;;;2.40;;
72198;SDS011;72266;51.056;16.880;2024-03-25T11:31:25;6.80;;;2.30;;
72198;SDS011;72266;51.056;16.880;2024-03-25T11:34:02;6.40;;;2.40;;
72198;SDS011;72266;51.056;16.880;2024-03-25T11:36:37;8.30;;;2.70;;
72198;SDS011;72266;51.056;16.880;2024-03-25T11:39:10;8.10;;;2.80;;
72198;SDS011;72266;51.056;16.880;2024-03-25T11:41:42;7.90;;;2.60;;
72198;SDS011;72266;51.056;16.880;2024-03-25T11:44:15;7.80;;;2.90;;
72198;SDS011;72266;51.056;16.880;2024-03-25T11:46:49;7.70;;;3.10;;
72198;SDS011;72266;51.056;16.880;2024-03-25T11:49:23;8.20;;;3.30;;
72198;SDS011;72266;51.056;16.880;2024-03-25T11:52:00;7.70;;;3.20;;
72198;SDS011;72266;51.056;16.880;2024-03-25T11:54:33;9.60;;;3.70;;
72198;SDS011;72266;51.056;16.880;2024-03-25T11:57:06;8.60;;;3.50;;
72198;SDS011;72266;51.056;16.880;2024-03-25T11:59:39;8.20;;;3.40;;
72198;SDS011;72266;51.056;16.880;2024-03-25T12:02:12;7.90;;;3.00;;
72198;SDS011;72266;51.056;16.880;2024-03-25T12:04:45;9.20;;;3.50;;
72198;SDS011;72266;51.056;16.880;2024-03-25T12:07:18;9.10;;;3.50;;
72198;SDS011;72266;51.056;16.880;2024-03-25T12:09:50;8.60;;;3.40;;
72198;SDS011;72266;51.056;16.880;2024-03-25T12:12:49;9.10;;;3.50;;
72198;SDS011;72266;51.056;16.880;2024-03-25T12:15:24;8.50;;;3.70;;
72198;SDS011;72266;51.056;16.880;2024-03-25T12:17:57;8.00;;;3.60;;
72198;SDS011;72266;51.056;16.880;2024-03-25T12:20:30;7.00;;;2.80;;
72198;SDS011;72266;51.056;16.880;2024-03-25T12:23:03;8.50;;;3.60;;
72198;SDS011;72266;51.056;16.880;2024-03-25T12:25:36;9.50;;;4.00;;
72198;SDS011;72266;51.056;16.880;2024-03-25T12:28:10;8.60;;;3.20;;
72198;SDS011;72266;51.056;16.880;2024-03-25T12:30:50;8.80;;;3.30;;
72198;SDS011;72266;51.056;16.880;2024-03-25T12:33:24;8.50;;;3.40;;
72198;SDS011;72266;51.056;16.880;2024-03-25T12:35:57;9.70;;;3.80;;
72198;SDS011;72266;51.056;16.880;2024-03-25T12:38:31;8.10;;;3.10;;
72198;SDS011;72266;51.056;16.880;2024-03-25T12:41:07;8.70;;;2.60;;
72198;SDS011;72266;51.056;16.880;2024-03-25T12:43:43;5.80;;;1.90;;
72198;SDS011;72266;51.056;16.880;2024-03-25T12:46:16;5.80;;;1.70;;
72198;SDS011;72266;51.056;16.880;2024-03-25T12:48:49;7.20;;;2.30;;
72198;SDS011;72266;51.056;16.880;2024-03-25T12:51:21;8.50;;;2.80;;
72198;SDS011;72266;51.056;16.880;2024-03-25T12:53:55;8.90;;;3.20;;
72198;SDS011;72266;51.056;16.880;2024-03-25T12:56:27;8.40;;;2.90;;
72198;SDS011;72266;51.056;16.880;2024-03-25T12:59:00;9.00;;;3.70;;
72198;SDS011;72266;51.056;16.880;2024-03-25T13:01:33;10.80;;;3.70;;
72198;SDS011;72266;51.056;16.880;2024-03-25T13:04:06;9.00;;;3.60;;
72198;SDS011;72266;51.056;16.880;2024-03-25T13:06:40;9.00;;;3.70;;
72198;SDS011;72266;51.056;16.880;2024-03-25T13:09:13;10.10;;;4.30;;
72198;SDS011;72266;51.056;16.880;2024-03-25T13:11:46;7.80;;;3.10;;
72198;SDS011;72266;51.056;16.880;2024-03-25T13:14:19;8.90;;;3.40;;
72198;SDS011;72266;51.056;16.880;2024-03-25T13:16:52;7.90;;;3.20;;
72198;SDS011;72266;51.056;16.880;2024-03-25T13:19:24;8.70;;;3.70;;
72198;SDS011;72266;51.056;16.880;2024-03-25T13:21:58;10.70;;;4.40;;
72198;SDS011;72266;51.056;16.880;2024-03-25T13:24:31;8.00;;;3.30;;
72198;SDS011;72266;51.056;16.880;2024-03-25T13:27:03;10.00;;;3.70;;
72198;SDS011;72266;51.056;16.880;2024-03-25T13:29:36;7.70;;;3.00;;
72198;SDS011;72266;51.056;16.880;2024-03-25T13:32:10;9.50;;;3.80;;
72198;SDS011;72266;51.056;16.880;2024-03-25T13:34:42;10.80;;;4.40;;
72198;SDS011;72266;51.056;16.880;2024-03-25T13:37:29;8.90;;;4.00;;
72198;SDS011;72266;51.056;16.880;2024-03-25T13:40:02;10.10;;;3.70;;
72198;SDS011;72266;51.056;16.880;2024-03-25T13:42:35;9.70;;;3.50;;
72198;SDS011;72266;51.056;16.880;2024-03-25T13:45:08;10.00;;;3.40;;
72198;SDS011;72266;51.056;16.880;2024-03-25T13:47:40;9.60;;;3.80;;
72198;SDS011;72266;51.056;16.880;2024-03-25T13:50:13;10.80;;;3.80;;
72198;SDS011;72266;51.056;16.880;2024-03-25T13:52:45;8.10;;;3.40;;
72198;SDS011;72266;51.056;16.880;2024-03-25T13:55:18;9.20;;;3.60;;
72198;SDS011;72266;51.056;16.880;2024-03-25T13:57:50;8.00;;;3.30;;
72198;SDS011;72266;51.056;16.880;2024-03-25T14:00:22;7.60;;;3.00;;
72198;SDS011;72266;51.056;16.880;2024-03-25T14:02:56;9.30;;;3.60;;
72198;SDS011;72266;51.056;16.880;2024-03-25T14:05:29;8.80;;;3.70;;
72198;SDS011;72266;51.056;16.880;2024-03-25T14:08:03;5.50;;;1.70;;
72198;SDS011;72266;51.056;16.880;2024-03-25T14:10:36;6.20;;;2.00;;
72198;SDS011;72266;51.056;16.880;2024-03-25T14:13:08;6.10;;;1.90;;
72198;SDS011;72266;51.056;16.880;2024-03-25T14:15:41;6.80;;;2.10;;
72198;SDS011;72266;51.056;16.880;2024-03-25T14:18:13;6.50;;;2.20;;
72198;SDS011;72266;51.056;16.880;2024-03-25T14:20:46;6.70;;;2.40;;
72198;SDS011;72266;51.056;16.880;2024-03-25T14:23:18;8.20;;;2.80;;
72198;SDS011;72266;51.056;16.880;2024-03-25T14:25:51;7.40;;;2.30;;
72198;SDS011;72266;51.056;16.880;2024-03-25T14:28:23;6.50;;;2.10;;
72198;SDS011;72266;51.056;16.880;2024-03-25T14:30:56;5.90;;;1.90;;
72198;SDS011;72266;51.056;16.880;2024-03-25T14:33:31;6.70;;;2.40;;
72198;SDS011;72266;51.056;16.880;2024-03-25T14:36:04;7.40;;;2.20;;
72198;SDS011;72266;51.056;16.880;2024-03-25T14:38:38;7.60;;;2.70;;
72198;SDS011;72266;51.056;16.880;2024-03-25T14:41:12;6.70;;;2.30;;
72198;SDS011;72266;51.056;16.880;2024-03-25T14:43:50;7.60;;;2.40;;
72198;SDS011;72266;51.056;16.880;2024-03-25T14:46:23;6.20;;;2.10;;
72198;SDS011;72266;51.056;16.880;2024-03-25T14:48:55;7.40;;;2.00;;
72198;SDS011;72266;51.056;16.880;2024-03-25T14:51:28;7.00;;;2.40;;
72198;SDS011;72266;51.056;16.880;2024-03-25T14:54:01;7.40;;;2.50;;
72198;SDS011;72266;51.056;16.880;2024-03-25T14:56:34;7.20;;;2.60;;
72198;SDS011;72266;51.056;16.880;2024-03-25T14:59:07;7.00;;;2.40;;
72198;SDS011;72266;51.056;16.880;2024-03-25T15:01:39;7.40;;;2.50;;
72198;SDS011;72266;51.056;16.880;2024-03-25T15:04:12;7.90;;;2.30;;
72198;SDS011;72266;51.056;16.880;2024-03-25T15:06:44;5.60;;;1.80;;
72198;SDS011;72266;51.056;16.880;2024-03-25T15:09:17;7.20;;;2.60;;